METAR Data

Data at: 0547 UTC 28 Sep 2022

METAR for:KWST (Westerly State Arpt, RI, US)
Text:KWST 280453Z AUTO 00000KT 10SM CLR 13/09 A2995 RMK AO2 SLP141 T01280089 402220122 $
Temperature: 12.8°C ( 55°F)
Dewpoint: 8.9°C ( 48°F) [RH = 77%]
Pressure (altimeter):29.95 inches Hg (1014.3 mb) [Sea level pressure: 1014.1 mb]
Winds:calm
Visibility:10 or more sm (16+ km)
Ceiling:at least 12,000 feet AGL
Clouds:sky clear below 12,000 feet AGL
QC Flag:automated observation with no human augmentation; SOME DATA ABOVE MAY BE INACCURATE!!!"$" is an indication the sensor requires maintenance.